Erwinville, LA

10:21 PM CST on February 26, 2015 (GMT -0600)
Gonzales | Change Station
CLOSE
Current Station
Airport
Location: Gonzales,
Elevation: 13 ft
Nearby Weather Stations

Elev 13 ft 30.17 °N, 90.94 °W | Updated 26 minutes ago

Mostly Cloudy
Mostly Cloudy
40 °F
Feels Like 35 °F
N
8
Wind Variable Wind from North
Gusts 16 mph

Today
High -- | Low -- °F
--% Chance of Precip.
Yesterday
High -- | Low -- °F
Precip. -- in
6:35 AM 6:02 PM
Waxing Gibbous, 65% visible
Pressure 30.27 in
Visibility 10.0 miles
Clouds Clear
Windchill 35 °F
Dew Point 34 °F
Humidity 78%
Rainfall 0.00 in
Snow Depth Not available.
UV 0 out of 12
Pollen 7.90 out of 12
Air Quality Not available.
Flu Activity Not available.
METAR KL38 270355Z AUTO 36007G14KT 10SM CLR 05/01 A3027 RMK AO2 T00460011

More Conditions Fewer Conditions

Pressure 30.27 in
Visibility 10.0 miles
Clouds Clear
Windchill 35 °F
Dew Point 34 °F
Humidity 78%
Rainfall 0.00 in
Snow Depth Not available.
UV 0 out of 12
Pollen 7.90 out of 12
Air Quality Not available.
Flu Activity Not available.
METAR KL38 270355Z AUTO 36007G14KT 10SM CLR 05/01 A3027 RMK AO2 T00460011

More Conditions Fewer Conditions

10-Day Weather Forecast

Almanac

Astronomy

Feb. 26, 2015 Rise Set
Actual Time
Civil Twilight
Nautical Twilight
Astronomical Twilight
Moon
Length of Visible Light
Length of Day
Tomorrow will be .
, % of the Moon is Illuminated

Today's Extremes

State Highs State Lows

Community

WunderPhotos

Upload Photos

1,800,622 photos uploaded!

WunderBlogs® & News

Nearby

Air Quality

  Air Quality AQ Index Pollutant
Not available.

Snow Depth

Station Depth Elevation

Earthquake Activity

City Distance Mag. Time & Date
Minimum magnitude displayed is 2.5.

Coastal Water Temperatures

Place Temperature

Nearby Weather Stations